createdAt,value
2023-05-06T00:00:23.411Z,79.52
2023-05-06T00:02:53.632Z,79.62
2023-05-06T00:05:27.004Z,79.41
2023-05-06T00:07:57.192Z,79.56
2023-05-06T00:10:27.264Z,79.99
2023-05-06T00:12:57.249Z,79.81
2023-05-06T00:15:27.503Z,80.02
2023-05-06T00:17:58.868Z,79.35
2023-05-06T00:20:32.404Z,80.12
2023-05-06T00:23:02.888Z,79.97
2023-05-06T00:25:32.876Z,80.34
2023-05-06T00:28:02.842Z,80.01
2023-05-06T00:30:32.761Z,80.74
2023-05-06T00:33:03.129Z,80.87
2023-05-06T00:35:35.713Z,79.97
2023-05-06T00:38:13.538Z,79.91
2023-05-06T00:40:45.706Z,79.23
2023-05-06T00:43:16.044Z,80.22
2023-05-06T00:45:46.091Z,80.62
2023-05-06T00:48:16.175Z,80.18
2023-05-06T00:50:49.098Z,80.22
2023-05-06T00:53:23.547Z,79.68
2023-05-06T00:55:54.002Z,80.24
2023-05-06T00:58:24.217Z,81.03
2023-05-06T01:00:55.456Z,80.53
2023-05-06T01:03:26.193Z,80.85
2023-05-06T01:06:11.521Z,81.48
2023-05-06T01:09:00.396Z,81.55
2023-05-06T01:11:39.159Z,81.30
2023-05-06T01:14:18.870Z,81.02
2023-05-06T01:16:55.643Z,81.55
2023-05-06T01:19:39.845Z,81.94
2023-05-06T01:22:15.998Z,81.05
2023-05-06T01:24:49.883Z,80.93
2023-05-06T01:27:19.976Z,81.60
2023-05-06T01:29:51.151Z,81.90
2023-05-06T01:32:41.826Z,81.19
2023-05-06T01:35:22.904Z,81.43
2023-05-06T01:38:05.505Z,82.14
2023-05-06T01:40:39.403Z,82.28
2023-05-06T01:43:10.603Z,82.15
2023-05-06T01:45:42.250Z,81.57
2023-05-06T01:48:13.089Z,81.52
2023-05-06T01:50:43.950Z,81.50
2023-05-06T01:53:14.692Z,80.49
2023-05-06T01:55:48.281Z,81.23
2023-05-06T01:58:19.933Z,82.03
2023-05-06T02:00:49.835Z,81.64
2023-05-06T02:03:19.870Z,82.11
2023-05-06T02:05:50.626Z,81.50
2023-05-06T02:08:20.676Z,81.74
2023-05-06T02:10:53.426Z,81.15
2023-05-06T02:13:24.503Z,81.90
2023-05-06T02:15:56.507Z,81.81
2023-05-06T02:18:26.651Z,82.04
2023-05-06T02:20:56.710Z,81.68
2023-05-06T02:23:26.617Z,82.26
2023-05-06T02:25:59.399Z,82.05
2023-05-06T02:28:29.487Z,82.35
2023-05-06T02:31:00.520Z,82.86
2023-05-06T02:33:30.507Z,82.69
2023-05-06T02:36:00.472Z,82.43
2023-05-06T02:38:30.393Z,82.64
2023-05-06T02:41:02.971Z,82.19
2023-05-06T02:43:33.021Z,82.71
2023-05-06T02:46:03.100Z,82.47
2023-05-06T02:48:33.171Z,82.10
2023-05-06T02:51:03.160Z,81.40
2023-05-06T02:53:33.114Z,82.37
2023-05-06T02:56:06.196Z,82.96
2023-05-06T02:58:36.168Z,83.54
2023-05-06T03:01:06.411Z,82.91
2023-05-06T03:03:36.664Z,82.77
2023-05-06T03:06:06.888Z,82.56
2023-05-06T03:08:36.993Z,82.07
2023-05-06T03:11:11.758Z,81.77
2023-05-06T03:13:41.849Z,81.75
2023-05-06T03:16:16.059Z,82.36
2023-05-06T03:18:50.040Z,81.66
2023-05-06T03:21:20.944Z,81.80
2023-05-06T03:23:52.700Z,81.39
2023-05-06T03:26:28.476Z,81.90
2023-05-06T03:28:59.286Z,82.34
2023-05-06T03:31:29.353Z,82.56
2023-05-06T03:34:01.343Z,82.15
2023-05-06T03:36:31.877Z,81.54
2023-05-06T03:39:02.160Z,81.51
2023-05-06T03:41:37.005Z,81.55
2023-05-06T03:44:07.209Z,81.33
2023-05-06T03:46:39.174Z,81.77
2023-05-06T03:49:09.534Z,81.45
2023-05-06T03:51:40.084Z,82.40
2023-05-06T03:54:10.123Z,83.02
2023-05-06T03:56:42.684Z,82.46
2023-05-06T03:59:13.094Z,82.60
2023-05-06T04:01:44.604Z,81.87
2023-05-06T04:04:16.152Z,82.16
2023-05-06T04:06:46.493Z,82.64
2023-05-06T04:09:16.522Z,82.40
2023-05-06T04:11:49.557Z,82.91
2023-05-06T04:14:21.185Z,82.95
2023-05-06T04:16:51.917Z,82.41
2023-05-06T04:19:23.534Z,81.92
2023-05-06T04:21:53.564Z,82.85
2023-05-06T04:24:23.678Z,82.37
2023-05-06T04:26:56.316Z,82.13
2023-05-06T04:29:27.606Z,81.73
2023-05-06T04:32:03.080Z,81.06
2023-05-06T04:34:36.467Z,81.75
2023-05-06T04:37:07.846Z,81.96
2023-05-06T04:39:46.779Z,81.31
2023-05-06T04:42:19.672Z,81.60
2023-05-06T04:44:59.773Z,80.92
2023-05-06T04:47:34.093Z,80.92
2023-05-06T04:50:04.581Z,80.93
2023-05-06T04:52:35.866Z,80.85
2023-05-06T04:55:06.568Z,80.92
2023-05-06T04:57:41.287Z,81.05
2023-05-06T05:00:13.207Z,81.30
2023-05-06T05:02:43.314Z,81.54
2023-05-06T05:05:14.256Z,80.52
2023-05-06T05:07:46.316Z,80.73
2023-05-06T05:10:16.673Z,80.46
2023-05-06T05:12:49.460Z,80.62
2023-05-06T05:15:20.575Z,79.83
2023-05-06T05:17:50.926Z,79.66
2023-05-06T05:20:21.940Z,79.10
2023-05-06T05:22:51.860Z,79.49
2023-05-06T05:25:21.953Z,79.60
2023-05-06T05:27:54.991Z,79.29
2023-05-06T05:30:24.989Z,79.93
2023-05-06T05:32:56.600Z,79.85
2023-05-06T05:35:26.841Z,79.34
2023-05-06T05:37:58.086Z,79.54
2023-05-06T05:40:28.243Z,80.13
2023-05-06T05:43:00.914Z,79.94
2023-05-06T05:45:36.743Z,79.48
2023-05-06T05:48:07.398Z,79.42
2023-05-06T05:50:37.521Z,79.67
2023-05-06T05:53:08.481Z,80.00
2023-05-06T05:55:40.620Z,79.68
2023-05-06T05:58:13.808Z,79.08
2023-05-06T06:00:45.055Z,80.13
2023-05-06T06:03:18.429Z,80.18
2023-05-06T06:05:49.552Z,79.80
2023-05-06T06:08:21.183Z,79.30
2023-05-06T06:10:54.244Z,79.00
2023-05-06T06:13:30.737Z,78.77
2023-05-06T06:16:02.654Z,78.86
2023-05-06T06:18:32.779Z,78.64
2023-05-06T06:21:02.782Z,78.20
2023-05-06T06:23:32.920Z,78.75
2023-05-06T06:26:02.983Z,78.72
2023-05-06T06:28:36.091Z,79.14
2023-05-06T06:31:06.083Z,79.36
2023-05-06T06:33:36.281Z,78.79
2023-05-06T06:36:06.780Z,77.93
2023-05-06T06:38:36.732Z,77.97
2023-05-06T06:41:07.679Z,77.86
2023-05-06T06:43:40.211Z,78.27
2023-05-06T06:46:19.904Z,77.50
2023-05-06T06:48:49.904Z,76.67
2023-05-06T06:51:19.937Z,76.84
2023-05-06T06:53:50.491Z,76.72
2023-05-06T06:56:20.507Z,76.14
2023-05-06T06:58:53.502Z,75.54
2023-05-06T07:01:23.626Z,75.43
2023-05-06T07:03:53.642Z,75.93
2023-05-06T07:06:23.822Z,75.34
2023-05-06T07:08:54.059Z,75.85
2023-05-06T07:11:24.096Z,75.66
2023-05-06T07:13:56.730Z,75.10
2023-05-06T07:16:26.878Z,74.50
2023-05-06T07:18:56.956Z,74.73
2023-05-06T07:21:27.276Z,73.85
2023-05-06T07:23:57.402Z,74.09
2023-05-06T07:26:27.656Z,74.36
2023-05-06T07:29:00.902Z,74.16
2023-05-06T07:31:31.056Z,73.71
2023-05-06T07:34:01.249Z,73.44
2023-05-06T07:36:36.837Z,72.54
2023-05-06T07:39:08.023Z,72.00
2023-05-06T07:41:37.991Z,70.66
2023-05-06T07:44:11.006Z,69.63
2023-05-06T07:46:41.472Z,69.06
2023-05-06T07:49:11.510Z,69.45
2023-05-06T07:51:41.517Z,68.01
2023-05-06T07:54:11.570Z,67.49
2023-05-06T07:56:41.539Z,66.48
2023-05-06T07:59:14.226Z,63.79
2023-05-06T08:01:44.294Z,64.75
2023-05-06T08:04:14.436Z,63.97
2023-05-06T08:06:44.503Z,64.58
2023-05-06T08:09:22.696Z,65.96
2023-05-06T08:11:53.503Z,66.25
2023-05-06T08:14:26.158Z,67.02
2023-05-06T08:16:56.248Z,66.14
2023-05-06T08:19:26.661Z,65.38
2023-05-06T08:21:56.968Z,64.07
2023-05-06T08:24:27.082Z,63.34
2023-05-06T08:26:57.039Z,62.37
2023-05-06T08:29:29.891Z,61.60
2023-05-06T08:31:59.865Z,60.17
2023-05-06T08:34:29.938Z,59.20
2023-05-06T08:37:00.412Z,59.15
2023-05-06T08:39:31.052Z,59.42
2023-05-06T08:42:03.640Z,58.41
2023-05-06T08:44:36.352Z,57.81
2023-05-06T08:47:06.845Z,56.26
2023-05-06T08:49:37.101Z,55.79
2023-05-06T08:52:08.699Z,55.13
2023-05-06T08:54:38.702Z,53.92
2023-05-06T08:57:10.996Z,53.85
2023-05-06T08:59:45.870Z,53.28
2023-05-06T09:02:16.332Z,52.45
2023-05-06T09:04:48.178Z,51.78
2023-05-06T09:07:18.748Z,50.46
2023-05-06T09:09:48.733Z,50.61
2023-05-06T09:12:18.813Z,53.45
2023-05-06T09:14:53.122Z,53.44
2023-05-06T09:17:26.905Z,54.20
2023-05-06T09:19:59.321Z,52.24
2023-05-06T09:22:31.398Z,51.56
2023-05-06T09:25:01.734Z,50.66
2023-05-06T09:27:34.825Z,51.43
2023-05-06T09:30:09.878Z,51.24
2023-05-06T09:32:40.612Z,51.54
2023-05-06T09:35:12.610Z,52.17
2023-05-06T09:37:42.822Z,53.23
2023-05-06T09:40:13.510Z,52.04
2023-05-06T09:42:46.670Z,51.18
2023-05-06T09:45:20.140Z,51.22
2023-05-06T09:47:52.942Z,50.58
2023-05-06T09:50:24.755Z,51.74
2023-05-06T09:52:55.270Z,51.80
2023-05-06T09:55:27.304Z,51.93
2023-05-06T09:57:58.342Z,51.57
2023-05-06T10:00:34.083Z,50.83
2023-05-06T10:03:05.319Z,51.74
2023-05-06T10:05:38.582Z,52.28
2023-05-06T10:08:10.895Z,50.68
2023-05-06T10:10:44.656Z,50.40
2023-05-06T10:13:16.335Z,50.83
2023-05-06T10:15:50.850Z,50.80
2023-05-06T10:18:23.042Z,50.28
2023-05-06T10:20:55.892Z,50.10
2023-05-06T10:23:31.921Z,50.58
2023-05-06T10:26:09.656Z,50.09
2023-05-06T10:28:43.612Z,49.58
2023-05-06T10:31:16.836Z,48.73
2023-05-06T10:33:52.166Z,49.89
2023-05-06T10:36:30.699Z,50.70
2023-05-06T10:39:04.093Z,48.44
2023-05-06T10:41:35.143Z,48.33
2023-05-06T10:44:06.257Z,48.47
2023-05-06T10:47:02.539Z,49.65
2023-05-06T10:49:32.569Z,48.86
2023-05-06T10:52:17.123Z,49.22
2023-05-06T10:54:51.966Z,49.17
2023-05-06T10:57:27.223Z,48.04
2023-05-06T10:59:57.603Z,47.38
2023-05-06T11:02:33.431Z,47.75
2023-05-06T11:05:04.950Z,46.68
2023-05-06T11:07:35.096Z,47.04
2023-05-06T11:10:08.405Z,46.07
2023-05-06T11:12:49.725Z,46.18
2023-05-06T11:15:38.908Z,45.80
2023-05-06T11:18:53.969Z,44.78
2023-05-06T11:21:44.496Z,44.61
2023-05-06T11:24:16.811Z,43.42
2023-05-06T11:26:46.944Z,43.69
2023-05-06T11:29:18.906Z,42.54
2023-05-06T11:31:49.832Z,42.35
2023-05-06T11:34:26.904Z,42.65
2023-05-06T11:37:02.806Z,41.63
2023-05-06T11:39:39.936Z,40.65
2023-05-06T11:42:11.960Z,41.23
2023-05-06T11:44:42.766Z,39.94
2023-05-06T11:47:12.786Z,40.69
2023-05-06T11:49:44.503Z,40.31
2023-05-06T11:52:17.076Z,40.21
2023-05-06T11:57:17.574Z,39.12
2023-05-06T11:59:47.545Z,38.15
2023-05-06T12:02:17.945Z,37.57
2023-05-06T12:04:50.403Z,37.17
2023-05-06T12:07:23.007Z,36.60
2023-05-06T12:09:54.716Z,35.30
2023-05-06T12:12:28.289Z,36.86
2023-05-06T12:14:58.657Z,36.23
2023-05-06T12:17:29.239Z,35.39
2023-05-06T12:19:59.613Z,35.38
2023-05-06T12:22:32.201Z,34.82
2023-05-06T12:25:15.059Z,33.71
2023-05-06T12:27:45.737Z,32.42
2023-05-06T12:30:16.521Z,31.19
2023-05-06T12:33:01.704Z,30.22
2023-05-06T12:35:33.840Z,30.11
2023-05-06T12:38:14.165Z,30.81
2023-05-06T12:40:46.165Z,31.00
2023-05-06T12:43:16.559Z,28.98
2023-05-06T12:45:46.655Z,28.80
2023-05-06T12:48:19.657Z,28.02
2023-05-06T12:50:50.579Z,28.66
2023-05-06T12:53:34.303Z,26.74
2023-05-06T12:56:04.463Z,28.16
2023-05-06T12:58:37.728Z,27.53
2023-05-06T13:01:08.139Z,26.91
2023-05-06T13:03:40.999Z,27.27
2023-05-06T13:06:11.201Z,27.03
2023-05-06T13:08:43.908Z,26.99
2023-05-06T13:11:13.910Z,24.74
2023-05-06T13:13:43.894Z,26.03
2023-05-06T13:16:13.928Z,26.46
2023-05-06T13:18:43.985Z,25.08
2023-05-06T13:21:14.242Z,26.06
2023-05-06T13:23:48.083Z,24.15
2023-05-06T13:26:18.838Z,23.18
2023-05-06T13:28:48.855Z,22.89
2023-05-06T13:31:18.945Z,21.30
2023-05-06T13:33:48.959Z,21.29
2023-05-06T13:36:19.060Z,22.29
2023-05-06T13:38:51.707Z,20.74
2023-05-06T13:41:21.649Z,20.50
2023-05-06T13:43:51.625Z,19.05
2023-05-06T13:46:21.636Z,18.65
2023-05-06T13:48:51.740Z,19.70
2023-05-06T13:51:21.719Z,19.64
2023-05-06T13:53:54.249Z,20.36
2023-05-06T13:56:24.332Z,18.54
2023-05-06T13:58:54.396Z,17.24
2023-05-06T14:01:24.723Z,18.09
2023-05-06T14:03:55.377Z,18.92
2023-05-06T14:06:25.372Z,18.71
2023-05-06T14:08:57.966Z,18.65
2023-05-06T14:11:27.952Z,18.47
2023-05-06T14:13:58.689Z,19.61
2023-05-06T14:16:28.849Z,18.53
2023-05-06T14:18:58.823Z,18.77
2023-05-06T14:21:28.943Z,19.08
2023-05-06T14:24:06.874Z,18.20
2023-05-06T14:26:37.755Z,19.35
2023-05-06T14:29:07.831Z,18.26
2023-05-06T14:31:38.025Z,17.83
2023-05-06T14:34:08.192Z,20.20
2023-05-06T14:36:38.410Z,20.20
2023-05-06T14:39:11.109Z,17.35
2023-05-06T14:41:41.207Z,16.50
2023-05-06T14:44:11.191Z,17.77
2023-05-06T14:46:41.159Z,16.71
2023-05-06T14:49:11.258Z,19.70
2023-05-06T14:51:41.266Z,18.84
2023-05-06T14:54:14.084Z,17.89
2023-05-06T14:56:45.598Z,21.44
2023-05-06T14:59:15.584Z,18.78
2023-05-06T15:01:45.638Z,17.46
2023-05-06T15:04:15.745Z,15.69
2023-05-06T15:06:45.686Z,15.13
2023-05-06T15:09:18.344Z,15.52
2023-05-06T15:11:48.339Z,17.63
2023-05-06T15:14:18.384Z,17.32
2023-05-06T15:16:48.472Z,18.30
2023-05-06T15:19:18.486Z,17.34
2023-05-06T15:21:48.689Z,19.27
2023-05-06T15:24:21.216Z,19.00
2023-05-06T15:26:51.189Z,17.88
2023-05-06T15:29:21.385Z,18.74
2023-05-06T15:31:51.461Z,20.51
2023-05-06T15:34:21.930Z,18.83
2023-05-06T15:36:54.429Z,19.31
2023-05-06T15:39:26.914Z,20.32
2023-05-06T15:41:56.982Z,20.07
2023-05-06T15:44:27.187Z,20.96
2023-05-06T15:46:57.190Z,23.30
2023-05-06T15:49:49.498Z,22.87
2023-05-06T15:52:17.073Z,22.23
2023-05-06T15:54:50.255Z,23.69
2023-05-06T15:57:20.578Z,24.56
2023-05-06T15:59:50.831Z,25.29
2023-05-06T16:04:54.361Z,23.68
2023-05-06T16:07:25.195Z,24.21
2023-05-06T16:09:57.892Z,25.03
2023-05-06T16:12:32.128Z,26.40
2023-05-06T16:15:03.432Z,25.98
2023-05-06T16:17:37.804Z,25.74
2023-05-06T16:20:10.496Z,26.30
2023-05-06T16:22:42.219Z,26.67
2023-05-06T16:25:14.975Z,26.91
2023-05-06T16:27:44.956Z,27.26
2023-05-06T16:30:15.728Z,27.05
2023-05-06T16:32:45.871Z,28.34
2023-05-06T16:35:16.038Z,28.27
2023-05-06T16:37:46.312Z,27.51
2023-05-06T16:40:22.059Z,27.19
2023-05-06T16:42:52.825Z,28.09
2023-05-06T16:45:23.059Z,28.10
2023-05-06T16:47:53.112Z,27.60
2023-05-06T16:50:23.309Z,28.24
2023-05-06T16:52:54.118Z,28.75
2023-05-06T16:55:26.858Z,29.82
2023-05-06T16:57:56.823Z,29.49
2023-05-06T17:00:28.327Z,29.79
2023-05-06T17:02:58.579Z,30.55
2023-05-06T17:05:31.120Z,30.17
2023-05-06T17:08:03.617Z,30.41
2023-05-06T17:10:36.293Z,31.86
2023-05-06T17:13:06.565Z,32.09
2023-05-06T17:15:36.620Z,33.00
2023-05-06T17:18:06.881Z,33.33
2023-05-06T17:20:51.531Z,33.48
2023-05-06T17:23:24.901Z,33.93
2023-05-06T17:25:58.693Z,34.26
2023-05-06T17:28:28.950Z,34.07
2023-05-06T17:30:59.033Z,34.97
2023-05-06T17:33:28.972Z,34.48
2023-05-06T17:35:59.013Z,36.27
2023-05-06T17:38:29.038Z,36.00
2023-05-06T17:41:01.553Z,36.03
2023-05-06T17:43:31.506Z,36.51
2023-05-06T17:46:01.686Z,36.82
2023-05-06T17:48:31.821Z,36.32
2023-05-06T17:51:03.319Z,36.92
2023-05-06T17:53:34.354Z,36.85
2023-05-06T17:56:07.616Z,37.95
2023-05-06T17:58:37.627Z,37.53
2023-05-06T18:01:07.728Z,38.34
2023-05-06T18:03:38.000Z,38.13
2023-05-06T18:06:08.204Z,39.56
2023-05-06T18:08:38.263Z,39.43
2023-05-06T18:11:11.065Z,39.24
2023-05-06T18:13:41.779Z,39.94
2023-05-06T18:16:11.806Z,39.76
2023-05-06T18:18:41.785Z,39.86
2023-05-06T18:21:11.704Z,40.83
2023-05-06T18:23:41.678Z,40.69
2023-05-06T18:26:19.074Z,40.97
2023-05-06T18:28:54.488Z,41.39
2023-05-06T18:31:24.879Z,41.17
2023-05-06T18:33:54.801Z,41.74
2023-05-06T18:36:24.758Z,41.41
2023-05-06T18:38:54.761Z,41.75
2023-05-06T18:41:27.728Z,42.02
2023-05-06T18:43:57.649Z,43.08
2023-05-06T18:46:28.170Z,43.85
2023-05-06T18:48:59.242Z,43.95
2023-05-06T18:51:29.292Z,44.43
2023-05-06T18:53:59.229Z,44.31
2023-05-06T18:56:31.932Z,44.11
2023-05-06T18:59:02.616Z,44.85
2023-05-06T19:01:32.745Z,44.35
2023-05-06T19:04:02.829Z,45.06
2023-05-06T19:06:33.980Z,45.79
2023-05-06T19:09:03.990Z,45.57
2023-05-06T19:11:36.769Z,45.44
2023-05-06T19:14:06.713Z,46.22
2023-05-06T19:16:36.849Z,46.54
2023-05-06T19:19:07.728Z,46.24
2023-05-06T19:21:38.604Z,46.91
2023-05-06T19:24:09.167Z,47.24
2023-05-06T19:26:41.771Z,47.36
2023-05-06T19:29:11.700Z,46.75
2023-05-06T19:31:41.687Z,47.34
2023-05-06T19:34:11.692Z,47.00
2023-05-06T19:36:41.675Z,47.51
2023-05-06T19:39:11.707Z,48.42
2023-05-06T19:41:45.134Z,48.67
2023-05-06T19:44:15.153Z,48.53
2023-05-06T19:46:45.278Z,48.61
2023-05-06T19:49:15.365Z,48.72
2023-05-06T19:51:45.369Z,48.43
2023-05-06T19:54:15.388Z,48.97
2023-05-06T19:56:49.022Z,49.31
2023-05-06T19:59:19.824Z,49.67
2023-05-06T20:01:49.763Z,49.53
2023-05-06T20:04:19.821Z,50.15
2023-05-06T20:06:49.785Z,50.02
2023-05-06T20:09:19.783Z,50.37
2023-05-06T20:11:52.375Z,50.90
2023-05-06T20:14:23.064Z,50.45
2023-05-06T20:16:53.193Z,50.16
2023-05-06T20:19:29.377Z,51.51
2023-05-06T20:22:00.483Z,51.34
2023-05-06T20:24:32.305Z,51.97
2023-05-06T20:27:04.962Z,51.63
2023-05-06T20:29:35.360Z,52.09
2023-05-06T20:32:05.581Z,52.09
2023-05-06T20:34:35.591Z,52.60
2023-05-06T20:37:06.849Z,52.79
2023-05-06T20:39:36.954Z,53.43
2023-05-06T20:42:11.085Z,54.21
2023-05-06T20:44:41.556Z,53.28
2023-05-06T20:47:12.611Z,53.33
2023-05-06T20:49:42.760Z,53.83
2023-05-06T20:52:14.822Z,53.99
2023-05-06T20:54:45.124Z,54.38
2023-05-06T20:57:19.976Z,54.63
2023-05-06T20:59:51.894Z,55.00
2023-05-06T21:02:22.028Z,54.80
2023-05-06T21:04:52.173Z,54.73
2023-05-06T21:07:22.196Z,55.46
2023-05-06T21:09:52.150Z,55.23
2023-05-06T21:12:24.788Z,54.72
2023-05-06T21:14:54.748Z,54.61
2023-05-06T21:17:24.764Z,54.69
2023-05-06T21:19:55.466Z,55.09
2023-05-06T21:22:25.987Z,55.14
2023-05-06T21:24:56.109Z,55.66
2023-05-06T21:27:28.859Z,55.81
2023-05-06T21:29:58.835Z,55.86
2023-05-06T21:32:33.301Z,56.68
2023-05-06T21:35:05.547Z,56.76
2023-05-06T21:37:35.797Z,56.44
2023-05-06T21:40:06.811Z,56.60
2023-05-06T21:42:39.559Z,56.90
2023-05-06T21:45:11.544Z,56.67
2023-05-06T21:47:42.973Z,56.75
2023-05-06T21:50:13.967Z,56.20
2023-05-06T21:52:44.396Z,57.26
2023-05-06T21:55:14.407Z,57.15
2023-05-06T21:57:47.031Z,57.82
2023-05-06T22:00:18.080Z,56.89
2023-05-06T22:02:48.140Z,57.48
2023-05-06T22:05:18.514Z,57.77
2023-05-06T22:07:48.523Z,58.07
2023-05-06T22:10:18.539Z,58.35
2023-05-06T22:12:51.181Z,58.19
2023-05-06T22:15:21.395Z,57.25
2023-05-06T22:17:51.376Z,57.57
2023-05-06T22:20:21.599Z,58.01
2023-05-06T22:22:54.287Z,58.50
2023-05-06T22:25:24.505Z,58.91
2023-05-06T22:27:57.057Z,58.07
2023-05-06T22:30:27.105Z,58.41
2023-05-06T22:32:57.229Z,57.92
2023-05-06T22:35:27.165Z,57.74
2023-05-06T22:37:57.140Z,58.75
2023-05-06T22:40:27.941Z,59.11
2023-05-06T22:43:00.515Z,58.76
2023-05-06T22:45:30.443Z,58.84
2023-05-06T22:48:00.601Z,59.19
2023-05-06T22:50:30.906Z,58.63
2023-05-06T22:53:10.239Z,58.66
2023-05-06T22:55:43.996Z,58.61
2023-05-06T22:58:16.892Z,58.24
2023-05-06T23:00:48.203Z,58.69
2023-05-06T23:03:18.558Z,58.88
2023-05-06T23:05:48.743Z,58.84
2023-05-06T23:08:19.137Z,58.55
2023-05-06T23:10:49.185Z,59.99
2023-05-06T23:13:21.821Z,59.70
2023-05-06T23:15:51.917Z,60.17
2023-05-06T23:18:22.103Z,60.57
2023-05-06T23:20:52.042Z,61.25
2023-05-06T23:23:21.937Z,61.67
2023-05-06T23:25:53.483Z,61.70
2023-05-06T23:28:26.279Z,62.46
2023-05-06T23:30:56.311Z,62.17
2023-05-06T23:33:26.890Z,62.29
2023-05-06T23:35:56.913Z,62.35
2023-05-06T23:38:26.935Z,62.59
2023-05-06T23:40:57.127Z,62.77
2023-05-06T23:43:29.687Z,61.49
2023-05-06T23:45:59.658Z,61.76
2023-05-06T23:48:29.640Z,61.83
2023-05-06T23:50:59.619Z,61.35
2023-05-06T23:53:29.572Z,61.50
2023-05-06T23:55:59.649Z,61.60
2023-05-06T23:58:32.283Z,61.88
